sensor_id;sensor_type;location;lat;lon;timestamp;temperature;humidity
11083;DHT22;5595;50.186;8.468;2023-04-15T00:01:09;4.90;99.90
11083;DHT22;5595;50.186;8.468;2023-04-15T00:03:36;4.90;99.90
11083;DHT22;5595;50.186;8.468;2023-04-15T00:06:03;4.90;99.90
11083;DHT22;5595;50.186;8.468;2023-04-15T00:08:30;4.90;99.90
11083;DHT22;5595;50.186;8.468;2023-04-15T00:10:57;4.90;99.90
11083;DHT22;5595;50.186;8.468;2023-04-15T00:13:27;4.80;99.90
11083;DHT22;5595;50.186;8.468;2023-04-15T00:15:54;4.90;99.90
11083;DHT22;5595;50.186;8.468;2023-04-15T00:18:22;4.90;99.90
11083;DHT22;5595;50.186;8.468;2023-04-15T00:20:50;4.90;99.90
11083;DHT22;5595;50.186;8.468;2023-04-15T00:23:17;4.80;99.90
11083;DHT22;5595;50.186;8.468;2023-04-15T00:25:44;4.80;99.90
11083;DHT22;5595;50.186;8.468;2023-04-15T00:28:11;4.80;99.90
11083;DHT22;5595;50.186;8.468;2023-04-15T00:30:38;4.80;99.90
11083;DHT22;5595;50.186;8.468;2023-04-15T00:33:05;4.60;99.90
11083;DHT22;5595;50.186;8.468;2023-04-15T00:35:33;4.80;99.90
11083;DHT22;5595;50.186;8.468;2023-04-15T00:38:01;5.00;99.90
11083;DHT22;5595;50.186;8.468;2023-04-15T00:40:28;4.80;99.90
11083;DHT22;5595;50.186;8.468;2023-04-15T00:42:55;4.80;99.90
11083;DHT22;5595;50.186;8.468;2023-04-15T00:45:22;4.90;99.90
11083;DHT22;5595;50.186;8.468;2023-04-15T00:47:50;4.80;99.90
11083;DHT22;5595;50.186;8.468;2023-04-15T00:50:17;4.80;99.90
11083;DHT22;5595;50.186;8.468;2023-04-15T00:52:45;4.80;99.90
11083;DHT22;5595;50.186;8.468;2023-04-15T00:55:12;4.80;99.90
11083;DHT22;5595;50.186;8.468;2023-04-15T00:57:39;4.80;99.90
11083;DHT22;5595;50.186;8.468;2023-04-15T01:00:08;4.70;99.90
11083;DHT22;5595;50.186;8.468;2023-04-15T01:02:36;4.70;99.90
11083;DHT22;5595;50.186;8.468;2023-04-15T01:05:04;4.70;99.90
11083;DHT22;5595;50.186;8.468;2023-04-15T01:07:32;4.70;99.90
11083;DHT22;5595;50.186;8.468;2023-04-15T01:10:02;4.70;99.90
11083;DHT22;5595;50.186;8.468;2023-04-15T01:12:31;4.60;99.90
11083;DHT22;5595;50.186;8.468;2023-04-15T01:14:59;4.70;99.90
11083;DHT22;5595;50.186;8.468;2023-04-15T01:17:26;4.60;99.90
11083;DHT22;5595;50.186;8.468;2023-04-15T01:19:55;4.60;99.90
11083;DHT22;5595;50.186;8.468;2023-04-15T01:22:22;4.50;99.90
11083;DHT22;5595;50.186;8.468;2023-04-15T01:24:54;4.70;99.90
11083;DHT22;5595;50.186;8.468;2023-04-15T01:27:27;4.50;99.90
11083;DHT22;5595;50.186;8.468;2023-04-15T01:29:55;4.50;99.90
11083;DHT22;5595;50.186;8.468;2023-04-15T01:32:23;4.50;99.90
11083;DHT22;5595;50.186;8.468;2023-04-15T01:34:50;4.50;99.90
11083;DHT22;5595;50.186;8.468;2023-04-15T01:37:17;4.40;99.90
11083;DHT22;5595;50.186;8.468;2023-04-15T01:39:44;4.40;99.90
11083;DHT22;5595;50.186;8.468;2023-04-15T01:42:11;4.40;99.90
11083;DHT22;5595;50.186;8.468;2023-04-15T01:44:39;4.40;99.90
11083;DHT22;5595;50.186;8.468;2023-04-15T01:47:06;4.30;99.90
11083;DHT22;5595;50.186;8.468;2023-04-15T01:49:33;4.30;99.90
11083;DHT22;5595;50.186;8.468;2023-04-15T01:52:00;4.40;99.90
11083;DHT22;5595;50.186;8.468;2023-04-15T01:54:27;4.30;99.90
11083;DHT22;5595;50.186;8.468;2023-04-15T01:56:54;4.40;99.90
11083;DHT22;5595;50.186;8.468;2023-04-15T01:59:22;4.30;99.90
11083;DHT22;5595;50.186;8.468;2023-04-15T02:01:51;4.30;99.90
11083;DHT22;5595;50.186;8.468;2023-04-15T02:04:18;4.30;99.90
11083;DHT22;5595;50.186;8.468;2023-04-15T02:06:45;4.30;99.90
11083;DHT22;5595;50.186;8.468;2023-04-15T02:09:12;4.30;99.90
11083;DHT22;5595;50.186;8.468;2023-04-15T02:11:38;4.20;99.90
11083;DHT22;5595;50.186;8.468;2023-04-15T02:14:05;4.20;99.90
11083;DHT22;5595;50.186;8.468;2023-04-15T02:16:32;4.20;99.90
11083;DHT22;5595;50.186;8.468;2023-04-15T02:19:01;4.20;99.90
11083;DHT22;5595;50.186;8.468;2023-04-15T02:21:28;4.20;99.90
11083;DHT22;5595;50.186;8.468;2023-04-15T02:23:55;4.20;99.90
11083;DHT22;5595;50.186;8.468;2023-04-15T02:26:22;4.30;99.90
11083;DHT22;5595;50.186;8.468;2023-04-15T02:28:49;4.20;99.90
11083;DHT22;5595;50.186;8.468;2023-04-15T02:31:16;4.20;99.90
11083;DHT22;5595;50.186;8.468;2023-04-15T02:33:43;4.30;99.90
11083;DHT22;5595;50.186;8.468;2023-04-15T02:36:11;4.20;99.90
11083;DHT22;5595;50.186;8.468;2023-04-15T02:38:39;4.20;99.90
11083;DHT22;5595;50.186;8.468;2023-04-15T02:41:08;4.30;99.90
11083;DHT22;5595;50.186;8.468;2023-04-15T02:43:34;4.20;99.90
11083;DHT22;5595;50.186;8.468;2023-04-15T02:46:02;4.30;99.90
11083;DHT22;5595;50.186;8.468;2023-04-15T02:48:29;4.20;99.90
11083;DHT22;5595;50.186;8.468;2023-04-15T02:51:13;4.10;99.90
11083;DHT22;5595;50.186;8.468;2023-04-15T02:53:40;4.20;99.90
11083;DHT22;5595;50.186;8.468;2023-04-15T02:56:07;4.20;99.90
11083;DHT22;5595;50.186;8.468;2023-04-15T02:58:34;4.10;99.90
11083;DHT22;5595;50.186;8.468;2023-04-15T03:01:01;4.20;99.90
11083;DHT22;5595;50.186;8.468;2023-04-15T03:03:28;4.20;99.90
11083;DHT22;5595;50.186;8.468;2023-04-15T03:05:55;4.20;99.90
11083;DHT22;5595;50.186;8.468;2023-04-15T03:08:23;4.20;99.90
11083;DHT22;5595;50.186;8.468;2023-04-15T03:10:50;4.10;99.90
11083;DHT22;5595;50.186;8.468;2023-04-15T03:13:18;4.30;99.90
11083;DHT22;5595;50.186;8.468;2023-04-15T03:15:45;4.10;99.90
11083;DHT22;5595;50.186;8.468;2023-04-15T03:18:12;4.00;99.90
11083;DHT22;5595;50.186;8.468;2023-04-15T03:20:40;4.00;99.90
11083;DHT22;5595;50.186;8.468;2023-04-15T03:23:07;3.90;99.90
11083;DHT22;5595;50.186;8.468;2023-04-15T03:25:35;4.00;99.90
11083;DHT22;5595;50.186;8.468;2023-04-15T03:28:02;4.10;99.90
11083;DHT22;5595;50.186;8.468;2023-04-15T03:30:29;3.90;99.90
11083;DHT22;5595;50.186;8.468;2023-04-15T03:32:56;4.00;99.90
11083;DHT22;5595;50.186;8.468;2023-04-15T03:35:23;3.90;99.90
11083;DHT22;5595;50.186;8.468;2023-04-15T03:37:50;3.90;99.90
11083;DHT22;5595;50.186;8.468;2023-04-15T03:40:17;4.00;99.90
11083;DHT22;5595;50.186;8.468;2023-04-15T03:42:45;3.90;99.90
11083;DHT22;5595;50.186;8.468;2023-04-15T03:45:12;3.90;99.90
11083;DHT22;5595;50.186;8.468;2023-04-15T03:47:39;3.90;99.90
11083;DHT22;5595;50.186;8.468;2023-04-15T03:50:07;3.90;99.90
11083;DHT22;5595;50.186;8.468;2023-04-15T03:52:33;4.00;99.90
11083;DHT22;5595;50.186;8.468;2023-04-15T03:55:00;4.00;99.90
11083;DHT22;5595;50.186;8.468;2023-04-15T03:57:27;4.00;99.90
11083;DHT22;5595;50.186;8.468;2023-04-15T03:59:56;4.00;99.90
11083;DHT22;5595;50.186;8.468;2023-04-15T04:02:23;3.90;99.90
11083;DHT22;5595;50.186;8.468;2023-04-15T04:04:49;4.00;99.90
11083;DHT22;5595;50.186;8.468;2023-04-15T04:07:17;4.00;99.90
11083;DHT22;5595;50.186;8.468;2023-04-15T04:09:44;4.00;99.90
11083;DHT22;5595;50.186;8.468;2023-04-15T04:12:10;4.00;99.90
11083;DHT22;5595;50.186;8.468;2023-04-15T04:14:37;4.00;99.90
11083;DHT22;5595;50.186;8.468;2023-04-15T04:17:05;4.00;99.90
11083;DHT22;5595;50.186;8.468;2023-04-15T04:19:32;4.00;99.90
11083;DHT22;5595;50.186;8.468;2023-04-15T04:21:59;3.90;99.90
11083;DHT22;5595;50.186;8.468;2023-04-15T04:24:26;4.10;99.90
11083;DHT22;5595;50.186;8.468;2023-04-15T04:26:53;4.10;99.90
11083;DHT22;5595;50.186;8.468;2023-04-15T04:29:21;4.30;99.90
11083;DHT22;5595;50.186;8.468;2023-04-15T04:31:47;4.20;99.90
11083;DHT22;5595;50.186;8.468;2023-04-15T04:34:16;4.30;99.90
11083;DHT22;5595;50.186;8.468;2023-04-15T04:36:43;4.20;99.90
11083;DHT22;5595;50.186;8.468;2023-04-15T04:39:10;4.20;99.90
11083;DHT22;5595;50.186;8.468;2023-04-15T04:41:36;4.30;99.90
11083;DHT22;5595;50.186;8.468;2023-04-15T04:44:03;4.30;99.90
11083;DHT22;5595;50.186;8.468;2023-04-15T04:46:30;4.40;99.90
11083;DHT22;5595;50.186;8.468;2023-04-15T04:48:57;4.50;99.90
11083;DHT22;5595;50.186;8.468;2023-04-15T04:51:25;4.50;99.90
11083;DHT22;5595;50.186;8.468;2023-04-15T04:53:53;4.50;99.90
11083;DHT22;5595;50.186;8.468;2023-04-15T04:56:21;4.50;99.90
11083;DHT22;5595;50.186;8.468;2023-04-15T04:58:47;4.60;99.90
11083;DHT22;5595;50.186;8.468;2023-04-15T05:01:14;4.70;99.90
11083;DHT22;5595;50.186;8.468;2023-04-15T05:03:41;4.70;99.90
11083;DHT22;5595;50.186;8.468;2023-04-15T05:06:08;4.90;99.90
11083;DHT22;5595;50.186;8.468;2023-04-15T05:08:37;4.80;99.90
11083;DHT22;5595;50.186;8.468;2023-04-15T05:11:05;4.70;99.90
11083;DHT22;5595;50.186;8.468;2023-04-15T05:13:32;4.80;99.90
11083;DHT22;5595;50.186;8.468;2023-04-15T05:15:58;4.90;99.90
11083;DHT22;5595;50.186;8.468;2023-04-15T05:18:25;4.90;99.90
11083;DHT22;5595;50.186;8.468;2023-04-15T05:20:52;5.00;99.90
11083;DHT22;5595;50.186;8.468;2023-04-15T05:23:19;5.00;99.90
11083;DHT22;5595;50.186;8.468;2023-04-15T05:25:47;5.10;99.90
11083;DHT22;5595;50.186;8.468;2023-04-15T05:28:14;5.20;99.90
11083;DHT22;5595;50.186;8.468;2023-04-15T05:30:41;5.20;99.90
11083;DHT22;5595;50.186;8.468;2023-04-15T05:33:08;5.30;99.90
11083;DHT22;5595;50.186;8.468;2023-04-15T05:35:35;5.40;99.90
11083;DHT22;5595;50.186;8.468;2023-04-15T05:38:02;5.40;99.90
11083;DHT22;5595;50.186;8.468;2023-04-15T05:40:29;5.70;99.90
11083;DHT22;5595;50.186;8.468;2023-04-15T05:42:57;5.70;99.90
11083;DHT22;5595;50.186;8.468;2023-04-15T05:45:24;5.70;99.90
11083;DHT22;5595;50.186;8.468;2023-04-15T05:47:51;5.80;99.90
11083;DHT22;5595;50.186;8.468;2023-04-15T05:50:19;6.00;99.90
11083;DHT22;5595;50.186;8.468;2023-04-15T05:52:46;6.00;99.90
11083;DHT22;5595;50.186;8.468;2023-04-15T05:55:13;6.20;99.90
11083;DHT22;5595;50.186;8.468;2023-04-15T05:57:39;6.20;99.90
11083;DHT22;5595;50.186;8.468;2023-04-15T06:00:09;6.40;99.90
11083;DHT22;5595;50.186;8.468;2023-04-15T06:02:36;6.40;99.90
11083;DHT22;5595;50.186;8.468;2023-04-15T06:05:03;6.40;99.90
11083;DHT22;5595;50.186;8.468;2023-04-15T06:07:34;6.50;99.90
11083;DHT22;5595;50.186;8.468;2023-04-15T06:10:01;6.60;99.90
11083;DHT22;5595;50.186;8.468;2023-04-15T06:12:28;6.70;99.90
11083;DHT22;5595;50.186;8.468;2023-04-15T06:14:55;6.80;99.90
11083;DHT22;5595;50.186;8.468;2023-04-15T06:17:24;6.90;99.90
11083;DHT22;5595;50.186;8.468;2023-04-15T06:19:51;7.10;99.90
11083;DHT22;5595;50.186;8.468;2023-04-15T06:22:20;7.20;99.90
11083;DHT22;5595;50.186;8.468;2023-04-15T06:24:47;7.30;99.90
11083;DHT22;5595;50.186;8.468;2023-04-15T06:27:15;7.50;99.90
11083;DHT22;5595;50.186;8.468;2023-04-15T06:29:41;7.60;99.90
11083;DHT22;5595;50.186;8.468;2023-04-15T06:32:08;7.70;99.90
11083;DHT22;5595;50.186;8.468;2023-04-15T06:34:37;7.90;99.90
11083;DHT22;5595;50.186;8.468;2023-04-15T06:37:04;8.00;99.90
11083;DHT22;5595;50.186;8.468;2023-04-15T06:39:31;8.20;99.90
11083;DHT22;5595;50.186;8.468;2023-04-15T06:41:58;8.30;99.90
11083;DHT22;5595;50.186;8.468;2023-04-15T06:44:26;8.50;99.90
11083;DHT22;5595;50.186;8.468;2023-04-15T06:46:52;8.70;99.90
11083;DHT22;5595;50.186;8.468;2023-04-15T06:49:19;8.90;99.90
11083;DHT22;5595;50.186;8.468;2023-04-15T06:51:47;9.10;99.90
11083;DHT22;5595;50.186;8.468;2023-04-15T06:54:15;9.30;99.90
11083;DHT22;5595;50.186;8.468;2023-04-15T06:56:42;9.40;99.90
11083;DHT22;5595;50.186;8.468;2023-04-15T06:59:10;9.50;99.90
11083;DHT22;5595;50.186;8.468;2023-04-15T07:01:37;9.70;99.90
11083;DHT22;5595;50.186;8.468;2023-04-15T07:04:04;9.60;99.90
11083;DHT22;5595;50.186;8.468;2023-04-15T07:06:31;9.70;99.90
11083;DHT22;5595;50.186;8.468;2023-04-15T07:08:59;9.80;99.90
11083;DHT22;5595;50.186;8.468;2023-04-15T07:11:27;10.00;99.90
11083;DHT22;5595;50.186;8.468;2023-04-15T07:13:54;10.10;99.90
11083;DHT22;5595;50.186;8.468;2023-04-15T07:16:21;10.30;99.90
11083;DHT22;5595;50.186;8.468;2023-04-15T07:18:48;10.60;99.90
11083;DHT22;5595;50.186;8.468;2023-04-15T07:21:15;10.90;99.90
11083;DHT22;5595;50.186;8.468;2023-04-15T07:23:42;10.90;99.90
11083;DHT22;5595;50.186;8.468;2023-04-15T07:26:10;11.20;99.90
11083;DHT22;5595;50.186;8.468;2023-04-15T07:28:37;11.20;99.90
11083;DHT22;5595;50.186;8.468;2023-04-15T07:31:04;11.30;99.90
11083;DHT22;5595;50.186;8.468;2023-04-15T07:33:31;11.40;99.90
11083;DHT22;5595;50.186;8.468;2023-04-15T07:35:58;11.50;99.90
11083;DHT22;5595;50.186;8.468;2023-04-15T07:38:25;11.60;99.90
11083;DHT22;5595;50.186;8.468;2023-04-15T07:40:52;11.50;99.90
11083;DHT22;5595;50.186;8.468;2023-04-15T07:43:20;11.60;99.90
11083;DHT22;5595;50.186;8.468;2023-04-15T07:45:47;11.60;99.90
11083;DHT22;5595;50.186;8.468;2023-04-15T07:48:14;11.50;99.90
11083;DHT22;5595;50.186;8.468;2023-04-15T07:50:41;11.60;99.90
11083;DHT22;5595;50.186;8.468;2023-04-15T07:53:08;11.40;99.90
11083;DHT22;5595;50.186;8.468;2023-04-15T07:55:35;11.30;99.90
11083;DHT22;5595;50.186;8.468;2023-04-15T07:58:02;11.20;99.90
11083;DHT22;5595;50.186;8.468;2023-04-15T08:00:30;11.30;99.90
11083;DHT22;5595;50.186;8.468;2023-04-15T08:02:57;11.40;99.90
11083;DHT22;5595;50.186;8.468;2023-04-15T08:05:24;11.30;99.90
11083;DHT22;5595;50.186;8.468;2023-04-15T08:07:51;11.30;99.90
11083;DHT22;5595;50.186;8.468;2023-04-15T08:10:18;11.40;99.90
11083;DHT22;5595;50.186;8.468;2023-04-15T08:12:45;11.50;99.90
11083;DHT22;5595;50.186;8.468;2023-04-15T08:15:14;11.60;99.90
11083;DHT22;5595;50.186;8.468;2023-04-15T08:17:42;11.60;99.90
11083;DHT22;5595;50.186;8.468;2023-04-15T08:20:10;11.70;99.90
11083;DHT22;5595;50.186;8.468;2023-04-15T08:22:37;11.80;99.90
11083;DHT22;5595;50.186;8.468;2023-04-15T08:25:05;11.70;99.90
11083;DHT22;5595;50.186;8.468;2023-04-15T08:27:33;11.80;99.90
11083;DHT22;5595;50.186;8.468;2023-04-15T08:30:00;11.60;99.90
11083;DHT22;5595;50.186;8.468;2023-04-15T08:32:27;11.90;99.90
11083;DHT22;5595;50.186;8.468;2023-04-15T08:34:55;11.90;99.90
11083;DHT22;5595;50.186;8.468;2023-04-15T08:37:22;11.90;99.90
11083;DHT22;5595;50.186;8.468;2023-04-15T08:39:49;12.10;99.90
11083;DHT22;5595;50.186;8.468;2023-04-15T08:42:18;12.00;99.90
11083;DHT22;5595;50.186;8.468;2023-04-15T08:44:48;12.00;99.90
11083;DHT22;5595;50.186;8.468;2023-04-15T08:47:19;12.20;99.90
11083;DHT22;5595;50.186;8.468;2023-04-15T08:49:47;12.40;99.90
11083;DHT22;5595;50.186;8.468;2023-04-15T08:52:19;12.30;99.90
11083;DHT22;5595;50.186;8.468;2023-04-15T08:54:47;12.40;99.90
11083;DHT22;5595;50.186;8.468;2023-04-15T08:57:14;12.70;99.90
11083;DHT22;5595;50.186;8.468;2023-04-15T08:59:42;12.60;99.90
11083;DHT22;5595;50.186;8.468;2023-04-15T09:02:10;12.60;99.90
11083;DHT22;5595;50.186;8.468;2023-04-15T09:04:37;12.70;99.90
11083;DHT22;5595;50.186;8.468;2023-04-15T09:07:04;12.70;99.90
11083;DHT22;5595;50.186;8.468;2023-04-15T09:09:32;12.80;99.90
11083;DHT22;5595;50.186;8.468;2023-04-15T09:12:02;13.10;99.90
11083;DHT22;5595;50.186;8.468;2023-04-15T09:14:28;13.20;99.90
11083;DHT22;5595;50.186;8.468;2023-04-15T09:16:57;13.30;99.80
11083;DHT22;5595;50.186;8.468;2023-04-15T09:19:26;13.30;99.00
11083;DHT22;5595;50.186;8.468;2023-04-15T09:21:54;13.40;98.70
11083;DHT22;5595;50.186;8.468;2023-04-15T09:24:22;13.50;98.50
11083;DHT22;5595;50.186;8.468;2023-04-15T09:26:53;13.70;97.50
11083;DHT22;5595;50.186;8.468;2023-04-15T09:29:23;13.80;97.70
11083;DHT22;5595;50.186;8.468;2023-04-15T09:31:51;13.80;97.20
11083;DHT22;5595;50.186;8.468;2023-04-15T09:34:18;13.90;96.90
11083;DHT22;5595;50.186;8.468;2023-04-15T09:36:53;14.00;96.50
11083;DHT22;5595;50.186;8.468;2023-04-15T09:39:20;14.20;96.50
11083;DHT22;5595;50.186;8.468;2023-04-15T09:42:04;14.30;95.60
11083;DHT22;5595;50.186;8.468;2023-04-15T09:44:32;14.10;95.40
11083;DHT22;5595;50.186;8.468;2023-04-15T09:46:59;14.00;95.50
11083;DHT22;5595;50.186;8.468;2023-04-15T09:49:26;13.90;95.20
11083;DHT22;5595;50.186;8.468;2023-04-15T09:51:58;13.60;94.00
11083;DHT22;5595;50.186;8.468;2023-04-15T09:54:32;13.60;94.20
11083;DHT22;5595;50.186;8.468;2023-04-15T09:57:06;13.10;93.40
11083;DHT22;5595;50.186;8.468;2023-04-15T09:59:33;12.90;93.60
11083;DHT22;5595;50.186;8.468;2023-04-15T10:02:03;12.80;93.40
11083;DHT22;5595;50.186;8.468;2023-04-15T10:04:32;12.70;93.60
11083;DHT22;5595;50.186;8.468;2023-04-15T10:07:02;12.70;93.80
11083;DHT22;5595;50.186;8.468;2023-04-15T10:09:30;12.60;93.50
11083;DHT22;5595;50.186;8.468;2023-04-15T10:11:59;12.60;93.60
11083;DHT22;5595;50.186;8.468;2023-04-15T10:14:32;12.50;93.80
11083;DHT22;5595;50.186;8.468;2023-04-15T10:17:01;12.10;94.20
11083;DHT22;5595;50.186;8.468;2023-04-15T10:19:30;12.00;94.90
11083;DHT22;5595;50.186;8.468;2023-04-15T10:21:58;12.00;95.40
11083;DHT22;5595;50.186;8.468;2023-04-15T10:24:26;12.00;95.70
11083;DHT22;5595;50.186;8.468;2023-04-15T10:26:54;12.10;96.10
11083;DHT22;5595;50.186;8.468;2023-04-15T10:29:23;12.40;96.60
11083;DHT22;5595;50.186;8.468;2023-04-15T10:31:53;12.20;96.70
11083;DHT22;5595;50.186;8.468;2023-04-15T10:34:21;12.40;97.30
11083;DHT22;5595;50.186;8.468;2023-04-15T10:36:48;12.70;97.70
11083;DHT22;5595;50.186;8.468;2023-04-15T10:39:39;12.50;97.40
11083;DHT22;5595;50.186;8.468;2023-04-15T10:42:07;13.00;97.60
11083;DHT22;5595;50.186;8.468;2023-04-15T10:44:35;13.10;97.50
11083;DHT22;5595;50.186;8.468;2023-04-15T10:47:09;13.10;97.40
11083;DHT22;5595;50.186;8.468;2023-04-15T10:49:42;13.10;97.20
11083;DHT22;5595;50.186;8.468;2023-04-15T10:52:10;13.10;97.20
11083;DHT22;5595;50.186;8.468;2023-04-15T10:54:37;13.10;97.20
11083;DHT22;5595;50.186;8.468;2023-04-15T10:57:08;13.30;97.40
11083;DHT22;5595;50.186;8.468;2023-04-15T11:02:45;13.40;95.80
11083;DHT22;5595;50.186;8.468;2023-04-15T11:05:13;13.50;96.30
11083;DHT22;5595;50.186;8.468;2023-04-15T11:07:49;13.60;95.70
11083;DHT22;5595;50.186;8.468;2023-04-15T11:10:49;13.60;95.80
11083;DHT22;5595;50.186;8.468;2023-04-15T11:13:24;13.50;96.30
11083;DHT22;5595;50.186;8.468;2023-04-15T11:15:55;13.40;96.60
11083;DHT22;5595;50.186;8.468;2023-04-15T11:18:27;13.30;96.80
11083;DHT22;5595;50.186;8.468;2023-04-15T11:20:56;13.40;97.10
11083;DHT22;5595;50.186;8.468;2023-04-15T11:23:28;13.50;97.20
11083;DHT22;5595;50.186;8.468;2023-04-15T11:25:56;13.70;97.20
11083;DHT22;5595;50.186;8.468;2023-04-15T11:28:25;13.70;97.10
11083;DHT22;5595;50.186;8.468;2023-04-15T11:30:53;13.90;97.60
11083;DHT22;5595;50.186;8.468;2023-04-15T11:33:21;14.10;98.10
11083;DHT22;5595;50.186;8.468;2023-04-15T11:35:51;13.80;97.90
11083;DHT22;5595;50.186;8.468;2023-04-15T11:38:18;13.40;99.10
11083;DHT22;5595;50.186;8.468;2023-04-15T11:40:45;12.90;99.70
11083;DHT22;5595;50.186;8.468;2023-04-15T11:43:13;12.70;99.90
11083;DHT22;5595;50.186;8.468;2023-04-15T11:45:49;12.50;99.90
11083;DHT22;5595;50.186;8.468;2023-04-15T11:48:17;12.10;99.90
11083;DHT22;5595;50.186;8.468;2023-04-15T11:50:44;11.70;99.90
11083;DHT22;5595;50.186;8.468;2023-04-15T11:53:13;11.60;99.90
11083;DHT22;5595;50.186;8.468;2023-04-15T11:55:41;11.40;99.90
11083;DHT22;5595;50.186;8.468;2023-04-15T11:58:10;11.10;99.90
11083;DHT22;5595;50.186;8.468;2023-04-15T12:00:39;11.00;99.90
11083;DHT22;5595;50.186;8.468;2023-04-15T12:03:14;11.00;99.90
11083;DHT22;5595;50.186;8.468;2023-04-15T12:09:02;11.10;99.90
11083;DHT22;5595;50.186;8.468;2023-04-15T12:11:35;11.30;99.90
11083;DHT22;5595;50.186;8.468;2023-04-15T12:14:04;11.40;99.90
11083;DHT22;5595;50.186;8.468;2023-04-15T12:16:33;11.50;99.90
11083;DHT22;5595;50.186;8.468;2023-04-15T12:19:04;11.80;99.90
11083;DHT22;5595;50.186;8.468;2023-04-15T12:21:34;12.10;99.90
11083;DHT22;5595;50.186;8.468;2023-04-15T12:24:05;12.30;99.90
11083;DHT22;5595;50.186;8.468;2023-04-15T12:26:35;12.30;99.90
11083;DHT22;5595;50.186;8.468;2023-04-15T12:29:03;12.10;99.90
11083;DHT22;5595;50.186;8.468;2023-04-15T12:31:31;12.40;99.90
11083;DHT22;5595;50.186;8.468;2023-04-15T12:33:59;12.50;99.90
11083;DHT22;5595;50.186;8.468;2023-04-15T12:36:26;12.50;99.90
11083;DHT22;5595;50.186;8.468;2023-04-15T12:38:54;12.70;99.90
11083;DHT22;5595;50.186;8.468;2023-04-15T12:41:23;12.60;99.90
11083;DHT22;5595;50.186;8.468;2023-04-15T12:43:50;12.30;99.90
11083;DHT22;5595;50.186;8.468;2023-04-15T12:46:16;12.20;99.90
11083;DHT22;5595;50.186;8.468;2023-04-15T12:48:43;12.20;99.90
11083;DHT22;5595;50.186;8.468;2023-04-15T12:51:10;12.10;99.90
11083;DHT22;5595;50.186;8.468;2023-04-15T12:53:37;12.00;99.90
11083;DHT22;5595;50.186;8.468;2023-04-15T12:56:04;11.90;99.90
11083;DHT22;5595;50.186;8.468;2023-04-15T12:58:33;12.00;99.90
11083;DHT22;5595;50.186;8.468;2023-04-15T13:01:00;11.80;99.90
11083;DHT22;5595;50.186;8.468;2023-04-15T13:03:28;11.70;99.90
11083;DHT22;5595;50.186;8.468;2023-04-15T13:05:55;12.00;99.90
11083;DHT22;5595;50.186;8.468;2023-04-15T13:08:22;11.70;99.90
11083;DHT22;5595;50.186;8.468;2023-04-15T13:10:49;11.70;99.90
11083;DHT22;5595;50.186;8.468;2023-04-15T13:13:16;11.90;99.90
11083;DHT22;5595;50.186;8.468;2023-04-15T13:15:44;11.50;99.90
11083;DHT22;5595;50.186;8.468;2023-04-15T13:18:11;11.60;99.90
11083;DHT22;5595;50.186;8.468;2023-04-15T13:20:38;11.50;99.90
11083;DHT22;5595;50.186;8.468;2023-04-15T13:23:06;11.40;99.90
11083;DHT22;5595;50.186;8.468;2023-04-15T13:25:33;11.50;99.90
11083;DHT22;5595;50.186;8.468;2023-04-15T13:28:00;11.30;99.90
11083;DHT22;5595;50.186;8.468;2023-04-15T13:30:27;11.30;99.90
11083;DHT22;5595;50.186;8.468;2023-04-15T13:32:55;11.50;99.90
11083;DHT22;5595;50.186;8.468;2023-04-15T13:35:22;11.30;99.90
11083;DHT22;5595;50.186;8.468;2023-04-15T13:37:49;11.60;99.90
11083;DHT22;5595;50.186;8.468;2023-04-15T13:40:18;11.60;99.90
11083;DHT22;5595;50.186;8.468;2023-04-15T13:42:45;11.50;99.90
11083;DHT22;5595;50.186;8.468;2023-04-15T13:45:13;11.50;99.90
11083;DHT22;5595;50.186;8.468;2023-04-15T13:47:41;11.40;99.90
11083;DHT22;5595;50.186;8.468;2023-04-15T13:50:09;11.70;99.90
11083;DHT22;5595;50.186;8.468;2023-04-15T13:52:37;11.40;99.90
11083;DHT22;5595;50.186;8.468;2023-04-15T13:55:04;11.20;99.90
11083;DHT22;5595;50.186;8.468;2023-04-15T13:57:31;11.20;99.90
11083;DHT22;5595;50.186;8.468;2023-04-15T13:59:59;11.20;99.90
11083;DHT22;5595;50.186;8.468;2023-04-15T14:02:26;11.10;99.90
11083;DHT22;5595;50.186;8.468;2023-04-15T14:04:53;11.20;99.90
11083;DHT22;5595;50.186;8.468;2023-04-15T14:07:21;11.20;99.90
11083;DHT22;5595;50.186;8.468;2023-04-15T14:09:48;11.20;99.90
11083;DHT22;5595;50.186;8.468;2023-04-15T14:12:16;11.20;99.90
11083;DHT22;5595;50.186;8.468;2023-04-15T14:14:43;11.10;99.90
11083;DHT22;5595;50.186;8.468;2023-04-15T14:17:11;11.00;99.90
11083;DHT22;5595;50.186;8.468;2023-04-15T14:19:38;11.00;99.90
11083;DHT22;5595;50.186;8.468;2023-04-15T14:22:05;11.10;99.90
11083;DHT22;5595;50.186;8.468;2023-04-15T14:24:33;10.80;99.90
11083;DHT22;5595;50.186;8.468;2023-04-15T14:27:01;11.10;99.90
11083;DHT22;5595;50.186;8.468;2023-04-15T14:29:28;11.30;99.90
11083;DHT22;5595;50.186;8.468;2023-04-15T14:31:55;11.00;99.90
11083;DHT22;5595;50.186;8.468;2023-04-15T14:34:23;11.00;99.90
11083;DHT22;5595;50.186;8.468;2023-04-15T14:36:51;10.90;99.90
11083;DHT22;5595;50.186;8.468;2023-04-15T14:39:18;10.80;99.90
11083;DHT22;5595;50.186;8.468;2023-04-15T14:41:47;10.70;99.90
11083;DHT22;5595;50.186;8.468;2023-04-15T14:44:14;10.60;99.90
11083;DHT22;5595;50.186;8.468;2023-04-15T14:46:41;10.50;99.90
11083;DHT22;5595;50.186;8.468;2023-04-15T14:49:08;10.00;99.90
11083;DHT22;5595;50.186;8.468;2023-04-15T14:51:35;10.20;99.90
11083;DHT22;5595;50.186;8.468;2023-04-15T14:54:03;10.20;99.90
11083;DHT22;5595;50.186;8.468;2023-04-15T14:56:30;10.10;99.90
11083;DHT22;5595;50.186;8.468;2023-04-15T14:58:58;10.00;99.90
11083;DHT22;5595;50.186;8.468;2023-04-15T15:01:25;9.80;99.90
11083;DHT22;5595;50.186;8.468;2023-04-15T15:03:52;9.70;99.90
11083;DHT22;5595;50.186;8.468;2023-04-15T15:06:20;9.70;99.90
11083;DHT22;5595;50.186;8.468;2023-04-15T15:08:47;9.70;99.90
11083;DHT22;5595;50.186;8.468;2023-04-15T15:11:15;9.60;99.90
11083;DHT22;5595;50.186;8.468;2023-04-15T15:13:42;9.50;99.90
11083;DHT22;5595;50.186;8.468;2023-04-15T15:16:11;9.40;99.90
11083;DHT22;5595;50.186;8.468;2023-04-15T15:18:37;9.30;99.90
11083;DHT22;5595;50.186;8.468;2023-04-15T15:21:05;9.10;99.90
11083;DHT22;5595;50.186;8.468;2023-04-15T15:23:32;9.00;99.90
11083;DHT22;5595;50.186;8.468;2023-04-15T15:25:58;9.00;99.90
11083;DHT22;5595;50.186;8.468;2023-04-15T15:28:26;8.80;99.90
11083;DHT22;5595;50.186;8.468;2023-04-15T15:30:53;8.70;99.90
11083;DHT22;5595;50.186;8.468;2023-04-15T15:33:21;8.80;99.90
11083;DHT22;5595;50.186;8.468;2023-04-15T15:35:48;8.50;99.90
11083;DHT22;5595;50.186;8.468;2023-04-15T15:38:16;8.40;99.90
11083;DHT22;5595;50.186;8.468;2023-04-15T15:40:43;8.40;99.90
11083;DHT22;5595;50.186;8.468;2023-04-15T15:43:10;8.30;99.90
11083;DHT22;5595;50.186;8.468;2023-04-15T15:45:37;8.20;99.90
11083;DHT22;5595;50.186;8.468;2023-04-15T15:48:04;8.40;99.90
11083;DHT22;5595;50.186;8.468;2023-04-15T15:50:33;8.20;99.90
11083;DHT22;5595;50.186;8.468;2023-04-15T15:53:00;8.30;99.90
11083;DHT22;5595;50.186;8.468;2023-04-15T15:55:27;8.30;99.90
11083;DHT22;5595;50.186;8.468;2023-04-15T15:57:54;7.70;99.90
11083;DHT22;5595;50.186;8.468;2023-04-15T16:00:21;8.20;99.90
11083;DHT22;5595;50.186;8.468;2023-04-15T16:02:48;8.20;99.90
11083;DHT22;5595;50.186;8.468;2023-04-15T16:05:15;8.20;99.90